Weather at Border Post Helipad [CLOSED]

Public forecast

Using degrees Celsius for public forecast. Weather courtesy of forecast.io.

Closest aviation weather report (METAR) to Border Post Helipad

Closest report is Hatay Airport, 15.3 nm (28.4 km) W.

2024/02/24 02:50 (retrieved 28 minutes ago)

LTDA 240250Z 03004KT 7000 FEW040 BKN180 10/08 Q1021 NOSIG

Closest aviation forecast (TAF) to Border Post Helipad

Forecast is more than 12 hours old.

Closest forecast is Aleppo International Airport, 31.9 nm (59.2 km) ESE.

2024/02/22 18:33 (retrieved 1 day ago)

TAF TAF OSAP 221800Z 2218/2318 VRB03KT 5000 BR SCT030 TEMPO 2303/2306 2000 BR NSC